sensor_id;sensor_type;location;lat;lon;timestamp;temperature;humidity
12604;DHT22;6367;52.508;13.284;2024-03-06T00:00:56;8.70;99.90
12604;DHT22;6367;52.508;13.284;2024-03-06T00:03:22;8.70;99.90
12604;DHT22;6367;52.508;13.284;2024-03-06T00:05:48;8.70;99.90
12604;DHT22;6367;52.508;13.284;2024-03-06T00:08:14;8.80;99.90
12604;DHT22;6367;52.508;13.284;2024-03-06T00:10:41;8.80;99.90
12604;DHT22;6367;52.508;13.284;2024-03-06T00:13:07;8.80;99.90
12604;DHT22;6367;52.508;13.284;2024-03-06T00:15:33;9.00;99.90
12604;DHT22;6367;52.508;13.284;2024-03-06T00:17:59;8.80;99.90
12604;DHT22;6367;52.508;13.284;2024-03-06T00:20:26;8.70;99.90
12604;DHT22;6367;52.508;13.284;2024-03-06T00:22:51;8.80;99.90
12604;DHT22;6367;52.508;13.284;2024-03-06T00:25:17;8.80;99.90
12604;DHT22;6367;52.508;13.284;2024-03-06T00:27:43;8.70;99.90
12604;DHT22;6367;52.508;13.284;2024-03-06T00:30:10;8.70;99.90
12604;DHT22;6367;52.508;13.284;2024-03-06T00:32:36;8.70;99.90
12604;DHT22;6367;52.508;13.284;2024-03-06T00:35:01;8.70;99.90
12604;DHT22;6367;52.508;13.284;2024-03-06T00:37:27;8.80;99.90
12604;DHT22;6367;52.508;13.284;2024-03-06T00:39:53;8.70;99.90
12604;DHT22;6367;52.508;13.284;2024-03-06T00:42:18;8.60;99.90
12604;DHT22;6367;52.508;13.284;2024-03-06T00:44:44;8.50;99.90
12604;DHT22;6367;52.508;13.284;2024-03-06T00:47:09;8.40;99.90
12604;DHT22;6367;52.508;13.284;2024-03-06T00:49:35;8.50;99.90
12604;DHT22;6367;52.508;13.284;2024-03-06T00:52:01;8.50;99.90
12604;DHT22;6367;52.508;13.284;2024-03-06T00:54:26;8.50;99.90
12604;DHT22;6367;52.508;13.284;2024-03-06T00:56:52;8.70;99.90
12604;DHT22;6367;52.508;13.284;2024-03-06T00:59:17;8.50;99.90
12604;DHT22;6367;52.508;13.284;2024-03-06T01:01:43;8.40;99.90
12604;DHT22;6367;52.508;13.284;2024-03-06T01:04:09;8.40;99.90
12604;DHT22;6367;52.508;13.284;2024-03-06T01:06:34;8.50;99.90
12604;DHT22;6367;52.508;13.284;2024-03-06T01:09:00;8.40;99.90
12604;DHT22;6367;52.508;13.284;2024-03-06T01:11:26;8.50;99.90
12604;DHT22;6367;52.508;13.284;2024-03-06T01:13:52;8.50;99.90
12604;DHT22;6367;52.508;13.284;2024-03-06T01:16:18;8.50;99.90
12604;DHT22;6367;52.508;13.284;2024-03-06T01:18:43;8.50;99.90
12604;DHT22;6367;52.508;13.284;2024-03-06T01:21:09;8.50;99.90
12604;DHT22;6367;52.508;13.284;2024-03-06T01:23:35;8.40;99.90
12604;DHT22;6367;52.508;13.284;2024-03-06T01:26:01;8.50;99.90
12604;DHT22;6367;52.508;13.284;2024-03-06T01:28:27;8.50;99.90
12604;DHT22;6367;52.508;13.284;2024-03-06T01:30:52;8.50;99.90
12604;DHT22;6367;52.508;13.284;2024-03-06T01:33:18;8.50;99.90
12604;DHT22;6367;52.508;13.284;2024-03-06T01:35:44;8.50;99.90
12604;DHT22;6367;52.508;13.284;2024-03-06T01:38:10;8.50;99.90
12604;DHT22;6367;52.508;13.284;2024-03-06T01:40:35;8.50;99.90
12604;DHT22;6367;52.508;13.284;2024-03-06T01:43:01;8.50;99.90
12604;DHT22;6367;52.508;13.284;2024-03-06T01:45:27;8.60;99.90
12604;DHT22;6367;52.508;13.284;2024-03-06T01:47:53;8.50;99.90
12604;DHT22;6367;52.508;13.284;2024-03-06T01:50:19;8.40;99.90
12604;DHT22;6367;52.508;13.284;2024-03-06T01:52:46;8.30;99.90
12604;DHT22;6367;52.508;13.284;2024-03-06T01:55:12;8.40;99.90
12604;DHT22;6367;52.508;13.284;2024-03-06T01:57:39;8.40;99.90
12604;DHT22;6367;52.508;13.284;2024-03-06T02:00:07;8.60;99.90
12604;DHT22;6367;52.508;13.284;2024-03-06T02:02:40;8.50;99.90
12604;DHT22;6367;52.508;13.284;2024-03-06T02:05:05;8.40;99.90
12604;DHT22;6367;52.508;13.284;2024-03-06T02:07:32;8.40;99.90
12604;DHT22;6367;52.508;13.284;2024-03-06T02:09:59;8.30;99.90
12604;DHT22;6367;52.508;13.284;2024-03-06T02:12:24;8.20;99.90
12604;DHT22;6367;52.508;13.284;2024-03-06T02:14:50;8.10;99.90
12604;DHT22;6367;52.508;13.284;2024-03-06T02:17:16;8.20;99.90
12604;DHT22;6367;52.508;13.284;2024-03-06T02:19:43;8.90;99.90
12604;DHT22;6367;52.508;13.284;2024-03-06T02:22:09;8.20;99.90
12604;DHT22;6367;52.508;13.284;2024-03-06T02:24:35;8.30;99.90
12604;DHT22;6367;52.508;13.284;2024-03-06T02:27:02;8.30;99.90
12604;DHT22;6367;52.508;13.284;2024-03-06T02:29:28;8.30;99.90
12604;DHT22;6367;52.508;13.284;2024-03-06T02:31:53;8.30;99.90
12604;DHT22;6367;52.508;13.284;2024-03-06T02:34:19;8.20;99.90
12604;DHT22;6367;52.508;13.284;2024-03-06T02:36:45;8.20;99.90
12604;DHT22;6367;52.508;13.284;2024-03-06T02:39:10;8.30;99.90
12604;DHT22;6367;52.508;13.284;2024-03-06T02:41:36;8.30;99.90
12604;DHT22;6367;52.508;13.284;2024-03-06T02:44:02;8.30;99.90
12604;DHT22;6367;52.508;13.284;2024-03-06T02:46:28;8.30;99.90
12604;DHT22;6367;52.508;13.284;2024-03-06T02:48:54;8.20;99.90
12604;DHT22;6367;52.508;13.284;2024-03-06T02:51:20;8.20;99.90
12604;DHT22;6367;52.508;13.284;2024-03-06T02:53:46;8.20;99.90
12604;DHT22;6367;52.508;13.284;2024-03-06T02:56:18;8.30;99.90
12604;DHT22;6367;52.508;13.284;2024-03-06T02:58:43;8.10;99.90
12604;DHT22;6367;52.508;13.284;2024-03-06T03:01:10;9.00;99.90
12604;DHT22;6367;52.508;13.284;2024-03-06T03:03:36;8.20;99.90
12604;DHT22;6367;52.508;13.284;2024-03-06T03:06:01;8.10;99.90
12604;DHT22;6367;52.508;13.284;2024-03-06T03:08:28;8.10;99.90
12604;DHT22;6367;52.508;13.284;2024-03-06T03:10:53;8.10;99.90
12604;DHT22;6367;52.508;13.284;2024-03-06T03:13:19;8.10;99.90
12604;DHT22;6367;52.508;13.284;2024-03-06T03:15:44;8.10;99.90
12604;DHT22;6367;52.508;13.284;2024-03-06T03:18:10;8.10;99.90
12604;DHT22;6367;52.508;13.284;2024-03-06T03:20:36;8.10;99.90
12604;DHT22;6367;52.508;13.284;2024-03-06T03:23:02;8.10;99.90
12604;DHT22;6367;52.508;13.284;2024-03-06T03:25:28;8.00;99.90
12604;DHT22;6367;52.508;13.284;2024-03-06T03:27:53;8.00;99.90
12604;DHT22;6367;52.508;13.284;2024-03-06T03:30:19;8.00;99.90
12604;DHT22;6367;52.508;13.284;2024-03-06T03:32:50;8.00;99.90
12604;DHT22;6367;52.508;13.284;2024-03-06T03:35:16;8.00;99.90
12604;DHT22;6367;52.508;13.284;2024-03-06T03:37:43;7.90;99.90
12604;DHT22;6367;52.508;13.284;2024-03-06T03:40:09;8.10;99.90
12604;DHT22;6367;52.508;13.284;2024-03-06T03:42:38;7.90;99.90
12604;DHT22;6367;52.508;13.284;2024-03-06T03:45:04;8.00;99.90
12604;DHT22;6367;52.508;13.284;2024-03-06T03:47:30;8.00;99.90
12604;DHT22;6367;52.508;13.284;2024-03-06T03:49:55;7.90;99.90
12604;DHT22;6367;52.508;13.284;2024-03-06T03:52:21;7.90;99.90
12604;DHT22;6367;52.508;13.284;2024-03-06T03:54:47;7.90;99.90
12604;DHT22;6367;52.508;13.284;2024-03-06T03:57:13;7.80;99.90
12604;DHT22;6367;52.508;13.284;2024-03-06T03:59:39;7.80;99.90
12604;DHT22;6367;52.508;13.284;2024-03-06T04:02:06;7.70;99.90
12604;DHT22;6367;52.508;13.284;2024-03-06T04:04:32;7.80;99.90
12604;DHT22;6367;52.508;13.284;2024-03-06T04:06:59;7.80;99.90
12604;DHT22;6367;52.508;13.284;2024-03-06T04:09:27;7.70;99.90
12604;DHT22;6367;52.508;13.284;2024-03-06T04:11:53;7.80;99.90
12604;DHT22;6367;52.508;13.284;2024-03-06T04:14:18;7.80;99.90
12604;DHT22;6367;52.508;13.284;2024-03-06T04:16:47;8.40;99.90
12604;DHT22;6367;52.508;13.284;2024-03-06T04:19:13;7.70;99.90
12604;DHT22;6367;52.508;13.284;2024-03-06T04:21:42;7.80;99.90
12604;DHT22;6367;52.508;13.284;2024-03-06T04:24:08;7.80;99.90
12604;DHT22;6367;52.508;13.284;2024-03-06T04:26:34;7.80;99.90
12604;DHT22;6367;52.508;13.284;2024-03-06T04:29:00;7.80;99.90
12604;DHT22;6367;52.508;13.284;2024-03-06T04:31:25;7.80;99.90
12604;DHT22;6367;52.508;13.284;2024-03-06T04:33:51;7.90;99.90
12604;DHT22;6367;52.508;13.284;2024-03-06T04:36:17;7.80;99.90
12604;DHT22;6367;52.508;13.284;2024-03-06T04:38:43;7.70;99.90
12604;DHT22;6367;52.508;13.284;2024-03-06T04:41:08;7.90;99.90
12604;DHT22;6367;52.508;13.284;2024-03-06T04:43:35;7.70;99.90
12604;DHT22;6367;52.508;13.284;2024-03-06T04:46:00;7.70;99.90
12604;DHT22;6367;52.508;13.284;2024-03-06T04:48:26;7.80;99.90
12604;DHT22;6367;52.508;13.284;2024-03-06T04:50:52;7.70;99.90
12604;DHT22;6367;52.508;13.284;2024-03-06T04:53:18;7.70;99.90
12604;DHT22;6367;52.508;13.284;2024-03-06T04:55:46;7.70;99.90
12604;DHT22;6367;52.508;13.284;2024-03-06T04:58:12;7.80;99.90
12604;DHT22;6367;52.508;13.284;2024-03-06T05:00:38;7.70;99.90
12604;DHT22;6367;52.508;13.284;2024-03-06T05:03:03;7.60;99.90
12604;DHT22;6367;52.508;13.284;2024-03-06T05:05:30;7.60;99.90
12604;DHT22;6367;52.508;13.284;2024-03-06T05:07:56;7.60;99.90
12604;DHT22;6367;52.508;13.284;2024-03-06T05:10:21;7.60;99.90
12604;DHT22;6367;52.508;13.284;2024-03-06T05:12:47;7.70;99.90
12604;DHT22;6367;52.508;13.284;2024-03-06T05:15:13;7.60;99.90
12604;DHT22;6367;52.508;13.284;2024-03-06T05:17:39;7.60;99.90
12604;DHT22;6367;52.508;13.284;2024-03-06T05:20:05;7.60;99.90
12604;DHT22;6367;52.508;13.284;2024-03-06T05:22:31;7.60;99.90
12604;DHT22;6367;52.508;13.284;2024-03-06T05:24:57;7.60;99.90
12604;DHT22;6367;52.508;13.284;2024-03-06T05:27:26;7.60;99.90
12604;DHT22;6367;52.508;13.284;2024-03-06T05:29:52;7.60;99.90
12604;DHT22;6367;52.508;13.284;2024-03-06T05:32:18;7.50;99.90
12604;DHT22;6367;52.508;13.284;2024-03-06T05:34:43;7.50;99.90
12604;DHT22;6367;52.508;13.284;2024-03-06T05:37:10;7.60;99.90
12604;DHT22;6367;52.508;13.284;2024-03-06T05:39:35;7.90;99.90
12604;DHT22;6367;52.508;13.284;2024-03-06T05:42:05;7.50;99.90
12604;DHT22;6367;52.508;13.284;2024-03-06T05:44:31;7.50;99.90
12604;DHT22;6367;52.508;13.284;2024-03-06T05:46:58;7.50;99.90
12604;DHT22;6367;52.508;13.284;2024-03-06T05:49:24;7.50;99.90
12604;DHT22;6367;52.508;13.284;2024-03-06T05:51:51;7.50;99.90
12604;DHT22;6367;52.508;13.284;2024-03-06T05:54:16;7.50;99.90
12604;DHT22;6367;52.508;13.284;2024-03-06T05:56:42;7.50;99.90
12604;DHT22;6367;52.508;13.284;2024-03-06T05:59:08;7.50;99.90
12604;DHT22;6367;52.508;13.284;2024-03-06T06:01:34;7.50;99.90
12604;DHT22;6367;52.508;13.284;2024-03-06T06:04:01;7.50;99.90
12604;DHT22;6367;52.508;13.284;2024-03-06T06:06:26;7.50;99.90
12604;DHT22;6367;52.508;13.284;2024-03-06T06:08:53;7.50;99.90
12604;DHT22;6367;52.508;13.284;2024-03-06T06:11:18;7.50;99.90
12604;DHT22;6367;52.508;13.284;2024-03-06T06:13:45;7.50;99.90
12604;DHT22;6367;52.508;13.284;2024-03-06T06:16:10;7.50;99.90
12604;DHT22;6367;52.508;13.284;2024-03-06T06:18:36;8.20;99.90
12604;DHT22;6367;52.508;13.284;2024-03-06T06:21:02;8.10;99.90
12604;DHT22;6367;52.508;13.284;2024-03-06T06:23:32;7.50;99.90
12604;DHT22;6367;52.508;13.284;2024-03-06T06:25:58;7.50;99.90
12604;DHT22;6367;52.508;13.284;2024-03-06T06:28:24;7.50;99.90
12604;DHT22;6367;52.508;13.284;2024-03-06T06:30:50;7.50;99.90
12604;DHT22;6367;52.508;13.284;2024-03-06T06:33:20;7.50;99.90
12604;DHT22;6367;52.508;13.284;2024-03-06T06:35:47;7.50;99.90
12604;DHT22;6367;52.508;13.284;2024-03-06T06:38:13;7.50;99.90
12604;DHT22;6367;52.508;13.284;2024-03-06T06:40:39;8.30;99.90
12604;DHT22;6367;52.508;13.284;2024-03-06T06:43:06;7.40;99.90
12604;DHT22;6367;52.508;13.284;2024-03-06T06:45:32;7.30;99.90
12604;DHT22;6367;52.508;13.284;2024-03-06T06:47:57;7.20;99.90
12604;DHT22;6367;52.508;13.284;2024-03-06T06:50:23;7.20;99.90
12604;DHT22;6367;52.508;13.284;2024-03-06T06:52:51;7.10;99.90
12604;DHT22;6367;52.508;13.284;2024-03-06T06:55:17;8.10;99.90
12604;DHT22;6367;52.508;13.284;2024-03-06T06:57:43;7.30;99.90
12604;DHT22;6367;52.508;13.284;2024-03-06T07:00:09;7.30;99.90
12604;DHT22;6367;52.508;13.284;2024-03-06T07:02:41;7.20;99.90
12604;DHT22;6367;52.508;13.284;2024-03-06T07:05:07;7.20;99.90
12604;DHT22;6367;52.508;13.284;2024-03-06T07:07:34;6.10;99.90
12604;DHT22;6367;52.508;13.284;2024-03-06T07:10:04;7.30;99.90
12604;DHT22;6367;52.508;13.284;2024-03-06T07:12:30;7.20;99.90
12604;DHT22;6367;52.508;13.284;2024-03-06T07:14:56;7.10;99.90
12604;DHT22;6367;52.508;13.284;2024-03-06T07:17:22;6.70;99.90
12604;DHT22;6367;52.508;13.284;2024-03-06T07:19:47;7.30;99.90
12604;DHT22;6367;52.508;13.284;2024-03-06T07:22:16;7.50;99.90
12604;DHT22;6367;52.508;13.284;2024-03-06T07:24:42;6.90;99.90
12604;DHT22;6367;52.508;13.284;2024-03-06T07:27:07;8.30;99.90
12604;DHT22;6367;52.508;13.284;2024-03-06T07:29:36;8.20;99.90
12604;DHT22;6367;52.508;13.284;2024-03-06T07:32:02;8.60;99.90
12604;DHT22;6367;52.508;13.284;2024-03-06T07:34:28;9.00;99.90
12604;DHT22;6367;52.508;13.284;2024-03-06T07:36:54;9.70;99.90
12604;DHT22;6367;52.508;13.284;2024-03-06T07:39:20;10.20;99.90
12604;DHT22;6367;52.508;13.284;2024-03-06T07:41:46;10.80;99.90
12604;DHT22;6367;52.508;13.284;2024-03-06T07:44:12;11.10;99.90
12604;DHT22;6367;52.508;13.284;2024-03-06T07:46:38;11.30;99.90
12604;DHT22;6367;52.508;13.284;2024-03-06T07:49:04;11.20;99.70
12604;DHT22;6367;52.508;13.284;2024-03-06T07:51:31;11.10;99.90
12604;DHT22;6367;52.508;13.284;2024-03-06T07:53:57;11.00;99.90
12604;DHT22;6367;52.508;13.284;2024-03-06T07:56:24;10.90;99.90
12604;DHT22;6367;52.508;13.284;2024-03-06T07:58:50;11.60;99.90
12604;DHT22;6367;52.508;13.284;2024-03-06T08:01:16;10.60;99.90
12604;DHT22;6367;52.508;13.284;2024-03-06T08:03:45;10.40;99.90
12604;DHT22;6367;52.508;13.284;2024-03-06T08:06:10;10.30;99.90
12604;DHT22;6367;52.508;13.284;2024-03-06T08:08:39;10.30;99.90
12604;DHT22;6367;52.508;13.284;2024-03-06T08:11:05;10.20;99.90
12604;DHT22;6367;52.508;13.284;2024-03-06T08:13:31;10.40;99.90
12604;DHT22;6367;52.508;13.284;2024-03-06T08:15:56;10.00;99.90
12604;DHT22;6367;52.508;13.284;2024-03-06T08:18:22;10.00;99.90
12604;DHT22;6367;52.508;13.284;2024-03-06T08:20:47;10.00;99.90
12604;DHT22;6367;52.508;13.284;2024-03-06T08:23:13;9.80;99.90
12604;DHT22;6367;52.508;13.284;2024-03-06T08:25:39;9.90;99.90
12604;DHT22;6367;52.508;13.284;2024-03-06T08:28:05;10.10;99.90
12604;DHT22;6367;52.508;13.284;2024-03-06T08:30:31;10.20;99.90
12604;DHT22;6367;52.508;13.284;2024-03-06T08:32:58;10.20;99.90
12604;DHT22;6367;52.508;13.284;2024-03-06T08:35:24;10.20;99.90
12604;DHT22;6367;52.508;13.284;2024-03-06T08:37:50;10.30;99.90
12604;DHT22;6367;52.508;13.284;2024-03-06T08:40:17;10.30;99.90
12604;DHT22;6367;52.508;13.284;2024-03-06T08:42:51;10.50;99.90
12604;DHT22;6367;52.508;13.284;2024-03-06T08:45:17;10.70;99.90
12604;DHT22;6367;52.508;13.284;2024-03-06T08:47:44;10.80;99.90
12604;DHT22;6367;52.508;13.284;2024-03-06T08:50:10;10.80;99.80
12604;DHT22;6367;52.508;13.284;2024-03-06T08:52:37;10.90;99.50
12604;DHT22;6367;52.508;13.284;2024-03-06T08:55:03;11.00;98.40
12604;DHT22;6367;52.508;13.284;2024-03-06T08:57:29;10.80;98.50
12604;DHT22;6367;52.508;13.284;2024-03-06T08:59:57;10.90;98.20
12604;DHT22;6367;52.508;13.284;2024-03-06T09:02:24;10.70;98.60
12604;DHT22;6367;52.508;13.284;2024-03-06T09:04:51;10.70;99.10
12604;DHT22;6367;52.508;13.284;2024-03-06T09:07:18;10.80;99.30
12604;DHT22;6367;52.508;13.284;2024-03-06T09:09:44;10.80;98.70
12604;DHT22;6367;52.508;13.284;2024-03-06T09:12:10;10.90;98.60
12604;DHT22;6367;52.508;13.284;2024-03-06T09:14:39;10.80;98.80
12604;DHT22;6367;52.508;13.284;2024-03-06T09:17:05;10.80;99.40
12604;DHT22;6367;52.508;13.284;2024-03-06T09:19:32;10.90;99.20
12604;DHT22;6367;52.508;13.284;2024-03-06T09:21:59;11.10;99.10
12604;DHT22;6367;52.508;13.284;2024-03-06T09:24:25;11.40;99.20
12604;DHT22;6367;52.508;13.284;2024-03-06T09:26:52;11.50;98.50
12604;DHT22;6367;52.508;13.284;2024-03-06T09:29:18;11.60;97.40
12604;DHT22;6367;52.508;13.284;2024-03-06T09:31:43;11.60;97.40
12604;DHT22;6367;52.508;13.284;2024-03-06T09:34:10;11.40;97.30
12604;DHT22;6367;52.508;13.284;2024-03-06T09:36:38;11.30;97.60
12604;DHT22;6367;52.508;13.284;2024-03-06T09:39:04;11.30;97.60
12604;DHT22;6367;52.508;13.284;2024-03-06T09:41:33;11.30;97.20
12604;DHT22;6367;52.508;13.284;2024-03-06T09:44:00;11.40;97.60
12604;DHT22;6367;52.508;13.284;2024-03-06T09:46:26;11.40;97.50
12604;DHT22;6367;52.508;13.284;2024-03-06T09:48:55;11.40;97.00
12604;DHT22;6367;52.508;13.284;2024-03-06T09:51:21;11.40;97.40
12604;DHT22;6367;52.508;13.284;2024-03-06T09:53:47;11.50;96.90
12604;DHT22;6367;52.508;13.284;2024-03-06T09:56:17;11.30;96.90
12604;DHT22;6367;52.508;13.284;2024-03-06T09:58:42;11.40;97.10
12604;DHT22;6367;52.508;13.284;2024-03-06T10:01:08;11.30;96.90
12604;DHT22;6367;52.508;13.284;2024-03-06T10:03:37;11.50;96.90
12604;DHT22;6367;52.508;13.284;2024-03-06T10:06:03;11.40;96.70
12604;DHT22;6367;52.508;13.284;2024-03-06T10:08:28;11.50;97.00
12604;DHT22;6367;52.508;13.284;2024-03-06T10:10:54;11.60;97.30
12604;DHT22;6367;52.508;13.284;2024-03-06T10:13:24;11.60;97.40
12604;DHT22;6367;52.508;13.284;2024-03-06T10:16:01;11.80;97.20
12604;DHT22;6367;52.508;13.284;2024-03-06T10:18:28;11.80;96.80
12604;DHT22;6367;52.508;13.284;2024-03-06T10:20:55;11.80;96.90
12604;DHT22;6367;52.508;13.284;2024-03-06T10:23:20;11.80;96.80
12604;DHT22;6367;52.508;13.284;2024-03-06T10:25:48;11.80;97.10
12604;DHT22;6367;52.508;13.284;2024-03-06T10:28:21;11.70;97.20
12604;DHT22;6367;52.508;13.284;2024-03-06T10:30:48;11.80;97.70
12604;DHT22;6367;52.508;13.284;2024-03-06T10:33:16;11.90;97.60
12604;DHT22;6367;52.508;13.284;2024-03-06T10:35:45;11.80;97.20
12604;DHT22;6367;52.508;13.284;2024-03-06T10:38:11;11.90;97.30
12604;DHT22;6367;52.508;13.284;2024-03-06T10:40:38;11.90;96.80
12604;DHT22;6367;52.508;13.284;2024-03-06T10:43:05;12.00;97.20
12604;DHT22;6367;52.508;13.284;2024-03-06T10:48:00;12.30;97.00
12604;DHT22;6367;52.508;13.284;2024-03-06T10:50:27;12.60;96.70
12604;DHT22;6367;52.508;13.284;2024-03-06T10:52:53;12.70;96.80
12604;DHT22;6367;52.508;13.284;2024-03-06T10:55:21;13.00;96.80
12604;DHT22;6367;52.508;13.284;2024-03-06T10:57:46;13.20;95.70
12604;DHT22;6367;52.508;13.284;2024-03-06T11:00:14;13.10;95.20
12604;DHT22;6367;52.508;13.284;2024-03-06T11:02:46;13.20;95.80
12604;DHT22;6367;52.508;13.284;2024-03-06T11:05:14;13.20;95.50
12604;DHT22;6367;52.508;13.284;2024-03-06T11:07:40;13.40;95.80
12604;DHT22;6367;52.508;13.284;2024-03-06T11:10:06;13.50;95.10
12604;DHT22;6367;52.508;13.284;2024-03-06T11:12:39;13.80;95.20
12604;DHT22;6367;52.508;13.284;2024-03-06T11:15:14;13.90;94.50
12604;DHT22;6367;52.508;13.284;2024-03-06T11:17:41;13.80;93.00
12604;DHT22;6367;52.508;13.284;2024-03-06T11:20:17;13.50;93.00
12604;DHT22;6367;52.508;13.284;2024-03-06T11:28:27;13.00;94.10
12604;DHT22;6367;52.508;13.284;2024-03-06T11:30:57;13.10;93.80
12604;DHT22;6367;52.508;13.284;2024-03-06T11:33:37;13.30;93.40
12604;DHT22;6367;52.508;13.284;2024-03-06T11:41:31;13.30;92.90
12604;DHT22;6367;52.508;13.284;2024-03-06T11:44:00;13.30;93.60
12604;DHT22;6367;52.508;13.284;2024-03-06T11:46:45;13.30;94.00
12604;DHT22;6367;52.508;13.284;2024-03-06T11:49:22;13.20;94.10
12604;DHT22;6367;52.508;13.284;2024-03-06T11:51:53;13.20;94.30
12604;DHT22;6367;52.508;13.284;2024-03-06T11:54:19;13.20;94.30
12604;DHT22;6367;52.508;13.284;2024-03-06T11:56:49;13.20;94.50
12604;DHT22;6367;52.508;13.284;2024-03-06T11:59:24;13.10;94.40
12604;DHT22;6367;52.508;13.284;2024-03-06T12:01:59;12.90;94.50
12604;DHT22;6367;52.508;13.284;2024-03-06T12:04:28;13.10;94.30
12604;DHT22;6367;52.508;13.284;2024-03-06T12:06:58;13.40;93.90
12604;DHT22;6367;52.508;13.284;2024-03-06T12:09:25;13.60;94.20
12604;DHT22;6367;52.508;13.284;2024-03-06T12:11:52;13.80;93.80
12604;DHT22;6367;52.508;13.284;2024-03-06T12:14:19;13.80;92.80
12604;DHT22;6367;52.508;13.284;2024-03-06T12:16:58;13.80;92.70
12604;DHT22;6367;52.508;13.284;2024-03-06T12:19:28;13.60;93.10
12604;DHT22;6367;52.508;13.284;2024-03-06T12:21:59;13.70;93.10
12604;DHT22;6367;52.508;13.284;2024-03-06T12:24:25;13.80;93.00
12604;DHT22;6367;52.508;13.284;2024-03-06T12:27:01;13.90;92.10
12604;DHT22;6367;52.508;13.284;2024-03-06T12:29:30;14.10;92.50
12604;DHT22;6367;52.508;13.284;2024-03-06T12:32:01;14.20;91.80
12604;DHT22;6367;52.508;13.284;2024-03-06T12:34:27;14.20;91.20
12604;DHT22;6367;52.508;13.284;2024-03-06T12:36:53;14.10;91.60
12604;DHT22;6367;52.508;13.284;2024-03-06T12:39:19;14.00;91.30
12604;DHT22;6367;52.508;13.284;2024-03-06T12:41:49;13.70;91.60
12604;DHT22;6367;52.508;13.284;2024-03-06T12:44:16;13.50;92.20
12604;DHT22;6367;52.508;13.284;2024-03-06T12:46:42;13.60;92.30
12604;DHT22;6367;52.508;13.284;2024-03-06T12:49:07;13.60;92.10
12604;DHT22;6367;52.508;13.284;2024-03-06T12:51:33;13.60;92.20
12604;DHT22;6367;52.508;13.284;2024-03-06T12:53:59;13.60;92.40
12604;DHT22;6367;52.508;13.284;2024-03-06T12:56:24;13.60;93.00
12604;DHT22;6367;52.508;13.284;2024-03-06T12:58:53;13.70;92.20
12604;DHT22;6367;52.508;13.284;2024-03-06T13:01:18;13.50;92.30
12604;DHT22;6367;52.508;13.284;2024-03-06T13:03:45;13.40;92.40
12604;DHT22;6367;52.508;13.284;2024-03-06T13:06:11;13.30;92.50
12604;DHT22;6367;52.508;13.284;2024-03-06T13:08:37;13.20;92.50
12604;DHT22;6367;52.508;13.284;2024-03-06T13:11:02;13.00;93.20
12604;DHT22;6367;52.508;13.284;2024-03-06T13:13:28;13.00;93.30
12604;DHT22;6367;52.508;13.284;2024-03-06T13:15:55;12.90;93.50
12604;DHT22;6367;52.508;13.284;2024-03-06T13:18:21;12.80;93.90
12604;DHT22;6367;52.508;13.284;2024-03-06T13:20:47;12.90;94.20
12604;DHT22;6367;52.508;13.284;2024-03-06T13:23:13;12.90;94.20
12604;DHT22;6367;52.508;13.284;2024-03-06T13:25:38;13.40;94.30
12604;DHT22;6367;52.508;13.284;2024-03-06T13:28:04;13.20;93.70
12604;DHT22;6367;52.508;13.284;2024-03-06T13:30:31;13.30;93.30
12604;DHT22;6367;52.508;13.284;2024-03-06T13:32:57;13.30;93.20
12604;DHT22;6367;52.508;13.284;2024-03-06T13:35:23;13.30;93.10
12604;DHT22;6367;52.508;13.284;2024-03-06T13:37:48;13.30;93.30
12604;DHT22;6367;52.508;13.284;2024-03-06T13:40:17;13.20;93.40
12604;DHT22;6367;52.508;13.284;2024-03-06T13:42:43;13.20;93.50
12604;DHT22;6367;52.508;13.284;2024-03-06T13:45:09;13.10;93.70
12604;DHT22;6367;52.508;13.284;2024-03-06T13:47:38;13.20;93.80
12604;DHT22;6367;52.508;13.284;2024-03-06T13:50:11;13.10;93.90
12604;DHT22;6367;52.508;13.284;2024-03-06T13:52:37;13.20;93.50
12604;DHT22;6367;52.508;13.284;2024-03-06T13:55:03;13.20;93.50
12604;DHT22;6367;52.508;13.284;2024-03-06T13:57:36;13.10;93.60
12604;DHT22;6367;52.508;13.284;2024-03-06T14:00:06;13.10;93.50
12604;DHT22;6367;52.508;13.284;2024-03-06T14:02:37;13.00;93.40
12604;DHT22;6367;52.508;13.284;2024-03-06T14:05:03;13.50;93.90
12604;DHT22;6367;52.508;13.284;2024-03-06T14:07:29;12.90;93.60
12604;DHT22;6367;52.508;13.284;2024-03-06T14:09:55;13.00;93.30
12604;DHT22;6367;52.508;13.284;2024-03-06T14:12:22;12.90;92.40
12604;DHT22;6367;52.508;13.284;2024-03-06T14:14:48;12.80;92.50
12604;DHT22;6367;52.508;13.284;2024-03-06T14:17:14;12.80;92.60
12604;DHT22;6367;52.508;13.284;2024-03-06T14:19:39;12.70;92.20
12604;DHT22;6367;52.508;13.284;2024-03-06T14:22:07;12.70;91.80
12604;DHT22;6367;52.508;13.284;2024-03-06T14:24:32;12.40;91.30
12604;DHT22;6367;52.508;13.284;2024-03-06T14:26:58;11.80;91.50
12604;DHT22;6367;52.508;13.284;2024-03-06T14:29:24;11.60;91.90
12604;DHT22;6367;52.508;13.284;2024-03-06T14:31:51;11.60;92.10
12604;DHT22;6367;52.508;13.284;2024-03-06T14:34:17;11.50;91.60
12604;DHT22;6367;52.508;13.284;2024-03-06T14:36:43;11.40;91.70
12604;DHT22;6367;52.508;13.284;2024-03-06T14:39:08;11.30;92.00
12604;DHT22;6367;52.508;13.284;2024-03-06T14:41:36;11.20;92.10
12604;DHT22;6367;52.508;13.284;2024-03-06T14:44:02;10.70;92.00
12604;DHT22;6367;52.508;13.284;2024-03-06T14:46:28;11.10;92.30
12604;DHT22;6367;52.508;13.284;2024-03-06T14:48:54;11.00;92.40
12604;DHT22;6367;52.508;13.284;2024-03-06T14:51:21;11.40;92.70
12604;DHT22;6367;52.508;13.284;2024-03-06T14:53:47;11.10;92.90
12604;DHT22;6367;52.508;13.284;2024-03-06T14:56:13;11.00;93.20
12604;DHT22;6367;52.508;13.284;2024-03-06T14:58:39;11.00;93.70
12604;DHT22;6367;52.508;13.284;2024-03-06T15:01:05;11.00;94.50
12604;DHT22;6367;52.508;13.284;2024-03-06T15:03:31;11.00;94.30
12604;DHT22;6367;52.508;13.284;2024-03-06T15:05:56;11.10;94.30
12604;DHT22;6367;52.508;13.284;2024-03-06T15:08:22;10.90;94.20
12604;DHT22;6367;52.508;13.284;2024-03-06T15:10:47;11.10;94.40
12604;DHT22;6367;52.508;13.284;2024-03-06T15:13:13;10.70;94.40
12604;DHT22;6367;52.508;13.284;2024-03-06T15:15:41;10.60;94.30
12604;DHT22;6367;52.508;13.284;2024-03-06T15:18:07;10.60;94.40
12604;DHT22;6367;52.508;13.284;2024-03-06T15:20:32;10.70;94.40
12604;DHT22;6367;52.508;13.284;2024-03-06T15:22:59;10.70;94.10
12604;DHT22;6367;52.508;13.284;2024-03-06T15:25:24;10.80;92.90
12604;DHT22;6367;52.508;13.284;2024-03-06T15:27:50;10.90;92.60
12604;DHT22;6367;52.508;13.284;2024-03-06T15:30:16;11.00;92.60
12604;DHT22;6367;52.508;13.284;2024-03-06T15:32:42;11.30;92.50
12604;DHT22;6367;52.508;13.284;2024-03-06T15:35:08;11.20;92.50
12604;DHT22;6367;52.508;13.284;2024-03-06T15:37:34;11.20;92.60
12604;DHT22;6367;52.508;13.284;2024-03-06T15:40:00;11.00;92.40
12604;DHT22;6367;52.508;13.284;2024-03-06T15:42:25;11.00;92.60
12604;DHT22;6367;52.508;13.284;2024-03-06T15:44:52;11.10;92.80
12604;DHT22;6367;52.508;13.284;2024-03-06T15:47:18;11.20;93.10